createdAt,value
2019-04-06T00:00:04.332Z,8.10
2019-04-06T00:01:04.314Z,7.80
2019-04-06T00:02:04.303Z,8.60
2019-04-06T00:03:04.285Z,7.80
2019-04-06T00:04:04.274Z,9.50
2019-04-06T00:05:04.255Z,8.90
2019-04-06T00:06:04.257Z,9.60
2019-04-06T00:07:04.229Z,8.70
2019-04-06T00:08:04.209Z,9.20
2019-04-06T00:09:04.193Z,9.50
2019-04-06T00:10:04.180Z,9.30
2019-04-06T00:11:04.164Z,9.20
2019-04-06T00:12:04.151Z,11.10
2019-04-06T00:13:04.140Z,8.70
2019-04-06T00:14:04.156Z,8.70
2019-04-06T00:15:04.103Z,11.40
2019-04-06T00:16:04.087Z,10.40
2019-04-06T00:17:04.075Z,8.80
2019-04-06T00:18:04.057Z,9.40
2019-04-06T00:19:04.042Z,12.90
2019-04-06T00:20:04.034Z,9.10
2019-04-06T00:21:04.011Z,8.00
2019-04-06T00:22:03.998Z,9.50
2019-04-06T00:23:03.983Z,9.10
2019-04-06T00:24:03.970Z,9.10
2019-04-06T00:25:03.950Z,9.30
2019-04-06T00:26:03.937Z,10.10
2019-04-06T00:27:03.921Z,9.00
2019-04-06T00:28:03.904Z,8.30
2019-04-06T00:29:03.896Z,9.40
2019-04-06T00:30:03.874Z,7.50
2019-04-06T00:31:03.863Z,9.20
2019-04-06T00:32:03.853Z,9.20
2019-04-06T00:33:03.836Z,9.90
2019-04-06T00:34:03.846Z,9.00
2019-04-06T00:35:03.798Z,9.20
2019-04-06T00:36:03.786Z,9.20
2019-04-06T00:37:03.768Z,10.10
2019-04-06T00:38:03.751Z,9.20
2019-04-06T00:39:03.748Z,9.40
2019-04-06T00:40:03.724Z,8.30
2019-04-06T00:41:03.707Z,8.10
2019-04-06T00:42:03.720Z,8.60
2019-04-06T00:43:03.677Z,8.20
2019-04-06T00:44:03.658Z,8.20
2019-04-06T00:45:03.648Z,9.40
2019-04-06T00:46:03.629Z,8.60
2019-04-06T00:47:03.617Z,8.80
2019-04-06T00:48:03.601Z,9.40
2019-04-06T00:49:03.648Z,11.80
2019-04-06T00:50:03.574Z,10.30
2019-04-06T00:51:03.556Z,10.50
2019-04-06T00:52:03.535Z,12.30
2019-04-06T00:53:03.523Z,9.50
2019-04-06T00:54:03.507Z,10.40
2019-04-06T00:55:03.495Z,10.40
2019-04-06T00:56:03.475Z,10.30
2019-04-06T00:57:03.472Z,12.30
2019-04-06T00:58:03.444Z,10.40
2019-04-06T00:59:03.431Z,10.70
2019-04-06T01:00:03.415Z,11.30
2019-04-06T01:01:03.400Z,10.90
2019-04-06T01:02:03.384Z,10.00
2019-04-06T01:03:03.371Z,10.40
2019-04-06T01:04:03.412Z,10.90
2019-04-06T01:05:03.337Z,10.20
2019-04-06T01:06:03.321Z,10.90
2019-04-06T01:07:03.307Z,9.80
2019-04-06T01:08:03.300Z,10.10
2019-04-06T01:09:03.277Z,10.30
2019-04-06T01:10:03.259Z,10.30
2019-04-06T01:11:03.245Z,10.10
2019-04-06T01:12:03.234Z,9.80
2019-04-06T01:13:03.213Z,10.20
2019-04-06T01:14:03.206Z,11.10
2019-04-06T01:15:03.183Z,10.90
2019-04-06T01:16:03.164Z,10.90
2019-04-06T01:17:03.156Z,10.60
2019-04-06T01:18:03.147Z,11.40
2019-04-06T01:19:03.130Z,10.90
2019-04-06T01:20:03.123Z,10.00
2019-04-06T01:21:03.088Z,9.80
2019-04-06T01:22:03.073Z,10.50
2019-04-06T01:23:03.062Z,11.30
2019-04-06T01:24:03.043Z,11.10
2019-04-06T01:25:03.027Z,11.50
2019-04-06T01:26:07.456Z,10.60
2019-04-06T01:27:02.997Z,11.00
2019-04-06T01:28:02.981Z,10.70
2019-04-06T01:29:02.968Z,10.80
2019-04-06T01:30:02.955Z,10.70
2019-04-06T01:31:02.938Z,11.50
2019-04-06T01:32:02.919Z,11.00
2019-04-06T01:33:02.908Z,11.50
2019-04-06T01:34:02.896Z,10.40
2019-04-06T01:35:02.883Z,11.50
2019-04-06T01:36:02.860Z,12.20
2019-04-06T01:37:02.841Z,10.50
2019-04-06T01:38:02.825Z,10.50
2019-04-06T01:39:02.814Z,10.50
2019-04-06T01:40:02.795Z,10.30
2019-04-06T01:41:02.777Z,11.30
2019-04-06T01:42:02.764Z,11.40
2019-04-06T01:43:02.750Z,12.00
2019-04-06T01:44:02.732Z,11.40
2019-04-06T01:45:02.715Z,11.40
2019-04-06T01:46:02.699Z,11.80
2019-04-06T01:47:02.683Z,11.50
2019-04-06T01:48:02.667Z,11.00
2019-04-06T01:49:02.655Z,11.40
2019-04-06T01:50:02.638Z,12.40
2019-04-06T01:51:02.640Z,11.20
2019-04-06T01:52:02.608Z,10.50
2019-04-06T01:53:02.591Z,11.90
2019-04-06T01:54:02.576Z,11.20
2019-04-06T01:55:02.567Z,10.90
2019-04-06T01:56:02.544Z,12.40
2019-04-06T01:57:02.535Z,11.90
2019-04-06T01:58:02.512Z,11.90
2019-04-06T01:59:02.501Z,13.80
2019-04-06T02:00:02.481Z,12.10
2019-04-06T02:01:02.467Z,12.50
2019-04-06T02:02:02.453Z,11.70
2019-04-06T02:03:02.434Z,11.10
2019-04-06T02:04:02.434Z,11.00
2019-04-06T02:05:02.509Z,11.70
2019-04-06T02:06:02.388Z,10.80
2019-04-06T02:07:02.372Z,11.50
2019-04-06T02:08:02.362Z,11.80
2019-04-06T02:09:02.350Z,11.20
2019-04-06T02:10:02.435Z,12.40
2019-04-06T02:11:02.309Z,11.80
2019-04-06T02:12:02.296Z,11.80
2019-04-06T02:13:02.276Z,11.40
2019-04-06T02:14:02.261Z,12.80
2019-04-06T02:15:02.245Z,12.90
2019-04-06T02:16:02.265Z,12.00
2019-04-06T02:17:02.222Z,11.20
2019-04-06T02:18:02.202Z,12.30
2019-04-06T02:19:02.185Z,12.00
2019-04-06T02:20:02.167Z,12.60
2019-04-06T02:21:02.152Z,12.50
2019-04-06T02:22:02.135Z,14.00
2019-04-06T02:23:02.120Z,12.80
2019-04-06T02:24:02.134Z,14.90
2019-04-06T02:25:02.160Z,15.40
2019-04-06T02:26:02.075Z,13.50
2019-04-06T02:27:02.060Z,14.00
2019-04-06T02:28:02.043Z,12.80
2019-04-06T02:29:02.025Z,13.50
2019-04-06T02:30:02.245Z,14.40
2019-04-06T02:31:02.170Z,13.60
2019-04-06T02:32:02.065Z,13.50
2019-04-06T02:33:01.962Z,13.30
2019-04-06T02:34:01.951Z,13.60
2019-04-06T02:35:01.944Z,15.40
2019-04-06T02:36:02.025Z,14.00
2019-04-06T02:37:01.899Z,15.80
2019-04-06T02:38:01.887Z,13.90
2019-04-06T02:39:01.875Z,13.20
2019-04-06T02:40:01.854Z,15.00
2019-04-06T02:41:01.926Z,13.70
2019-04-06T02:42:01.818Z,13.20
2019-04-06T02:43:01.896Z,12.60
2019-04-06T02:44:01.788Z,14.50
2019-04-06T02:45:01.786Z,13.90
2019-04-06T02:46:01.761Z,13.50
2019-04-06T02:47:01.982Z,13.40
2019-04-06T02:48:01.730Z,15.10
2019-04-06T02:49:01.708Z,13.80
2019-04-06T02:50:01.693Z,15.70
2019-04-06T02:51:01.782Z,12.50
2019-04-06T02:52:01.659Z,14.90
2019-04-06T02:53:01.644Z,13.20
2019-04-06T02:54:01.630Z,14.30
2019-04-06T02:55:01.671Z,15.70
2019-04-06T02:56:01.596Z,13.80
2019-04-06T02:57:01.581Z,13.90
2019-04-06T02:58:01.688Z,13.80
2019-04-06T02:59:01.546Z,15.20
2019-04-06T03:00:01.555Z,14.50
2019-04-06T03:01:01.513Z,14.30
2019-04-06T03:02:01.500Z,15.90
2019-04-06T03:03:01.504Z,15.30
2019-04-06T03:04:01.468Z,17.50
2019-04-06T03:05:01.450Z,15.50
2019-04-06T03:06:01.436Z,15.50
2019-04-06T03:07:01.420Z,15.50
2019-04-06T03:08:01.401Z,15.50
2019-04-06T03:09:01.467Z,14.10
2019-04-06T03:10:01.377Z,15.00
2019-04-06T03:11:01.357Z,14.00
2019-04-06T03:12:01.339Z,14.10
2019-04-06T03:13:01.462Z,15.20
2019-04-06T03:14:01.315Z,17.20
2019-04-06T03:15:01.452Z,16.00
2019-04-06T03:16:01.273Z,14.90
2019-04-06T03:17:01.260Z,15.60
2019-04-06T03:18:01.305Z,16.40
2019-04-06T03:19:01.228Z,15.40
2019-04-06T03:20:01.212Z,14.10
2019-04-06T03:21:01.195Z,14.40
2019-04-06T03:22:01.187Z,15.50
2019-04-06T03:23:01.196Z,15.60
2019-04-06T03:24:01.149Z,16.60
2019-04-06T03:25:01.293Z,16.80
2019-04-06T03:26:01.118Z,16.30
2019-04-06T03:27:02.851Z,17.60
2019-04-06T03:28:01.084Z,15.40
2019-04-06T03:29:01.316Z,16.30
2019-04-06T03:30:01.189Z,16.20
2019-04-06T03:31:01.035Z,17.90
2019-04-06T03:32:01.658Z,15.30
2019-04-06T03:33:01.157Z,16.60
2019-04-06T03:34:00.985Z,16.70
2019-04-06T03:35:01.144Z,17.10
2019-04-06T03:36:01.076Z,16.30
2019-04-06T03:37:00.941Z,15.70
2019-04-06T03:38:00.923Z,16.00
2019-04-06T03:39:00.906Z,18.40
2019-04-06T03:40:00.885Z,18.80
2019-04-06T03:41:00.929Z,17.50
2019-04-06T03:42:00.859Z,17.80
2019-04-06T03:43:00.839Z,18.40
2019-04-06T03:44:00.988Z,16.70
2019-04-06T03:45:00.813Z,19.90
2019-04-06T03:46:00.793Z,18.10
2019-04-06T03:47:00.956Z,16.40
2019-04-06T03:48:00.760Z,18.70
2019-04-06T03:49:00.755Z,17.30
2019-04-06T03:50:00.726Z,19.10
2019-04-06T03:51:00.711Z,22.90
2019-04-06T03:52:00.799Z,21.80
2019-04-06T03:53:00.683Z,43.90
2019-04-06T03:54:00.659Z,23.30
2019-04-06T03:55:00.653Z,23.70
2019-04-06T03:56:00.630Z,74.50
2019-04-06T03:57:13.960Z,32.90
2019-04-06T03:58:00.842Z,36.50
2019-04-06T03:59:00.914Z,28.00
2019-04-06T04:00:00.567Z,78.20
2019-04-06T04:01:00.552Z,40.50
2019-04-06T04:02:00.539Z,41.70
2019-04-06T04:03:00.517Z,30.20
2019-04-06T04:04:00.501Z,25.10
2019-04-06T04:05:00.502Z,26.50
2019-04-06T04:06:00.466Z,33.50
2019-04-06T04:07:00.455Z,151.90
2019-04-06T04:08:00.436Z,142.20
2019-04-06T04:09:00.422Z,143.50
2019-04-06T04:10:00.416Z,103.20
2019-04-06T04:11:00.660Z,50.80
2019-04-06T04:12:00.371Z,150.00
2019-04-06T04:13:00.353Z,91.00
2019-04-06T04:14:00.351Z,30.60
2019-04-06T04:15:00.340Z,30.80
2019-04-06T04:16:00.310Z,33.50
2019-04-06T04:17:00.291Z,27.80
2019-04-06T04:18:00.274Z,27.90
2019-04-06T04:19:00.260Z,25.60
2019-04-06T04:20:00.244Z,27.10
2019-04-06T04:21:00.226Z,23.10
2019-04-06T04:22:00.212Z,26.30
2019-04-06T04:23:00.197Z,24.40
2019-04-06T04:24:00.180Z,32.20
2019-04-06T04:25:00.162Z,33.60
2019-04-06T04:26:00.145Z,24.60
2019-04-06T04:27:00.131Z,24.70
2019-04-06T04:28:00.113Z,25.70
2019-04-06T04:29:00.100Z,23.70
2019-04-06T04:30:00.082Z,26.50
2019-04-06T04:31:00.065Z,24.30
2019-04-06T04:32:00.152Z,27.80
2019-04-06T04:33:00.034Z,24.70
2019-04-06T04:34:00.224Z,25.10
2019-04-06T04:34:59.999Z,25.60
2019-04-06T04:36:00.045Z,22.90
2019-04-06T04:36:59.971Z,23.20
2019-04-06T04:37:59.953Z,28.10
2019-04-06T04:38:59.945Z,25.80
2019-04-06T04:39:59.924Z,24.10
2019-04-06T04:40:59.907Z,25.50
2019-04-06T04:41:59.891Z,23.80
2019-04-06T04:43:00.134Z,26.60
2019-04-06T04:43:59.858Z,34.40
2019-04-06T04:44:59.841Z,22.80
2019-04-06T04:45:59.829Z,23.50
2019-04-06T04:46:59.810Z,23.30
2019-04-06T04:47:59.793Z,24.30
2019-04-06T04:48:59.777Z,24.00
2019-04-06T04:49:59.760Z,26.40
2019-04-06T04:50:59.748Z,26.50
2019-04-06T04:51:59.749Z,27.40
2019-04-06T04:52:59.731Z,29.80
2019-04-06T04:53:59.697Z,30.20
2019-04-06T04:54:59.682Z,30.70
2019-04-06T04:55:59.667Z,32.80
2019-04-06T04:56:59.653Z,31.20
2019-04-06T04:57:59.635Z,31.00
2019-04-06T04:58:59.620Z,31.20
2019-04-06T04:59:59.606Z,31.30
2019-04-06T05:00:59.794Z,29.10
2019-04-06T05:01:59.576Z,28.30
2019-04-06T05:02:59.561Z,26.30
2019-04-06T05:03:59.725Z,28.90
2019-04-06T05:04:59.528Z,26.40
2019-04-06T05:05:59.526Z,27.90
2019-04-06T05:06:59.496Z,27.70
2019-04-06T05:07:59.483Z,29.00
2019-04-06T05:08:59.464Z,29.20
2019-04-06T05:09:59.450Z,26.60
2019-04-06T05:10:59.433Z,26.60
2019-04-06T05:11:59.416Z,28.80
2019-04-06T05:12:59.402Z,25.90
2019-04-06T05:13:59.384Z,24.80
2019-04-06T05:14:59.370Z,26.10
2019-04-06T05:15:59.353Z,23.90
2019-04-06T05:16:59.337Z,30.90
2019-04-06T05:17:59.321Z,28.40
2019-04-06T05:18:59.307Z,52.90
2019-04-06T05:19:59.297Z,123.50
2019-04-06T05:20:59.282Z,90.40
2019-04-06T05:21:59.259Z,45.40
2019-04-06T05:22:59.242Z,31.80
2019-04-06T05:23:59.227Z,46.20
2019-04-06T05:24:59.213Z,33.10
2019-04-06T05:25:59.199Z,114.90
2019-04-06T05:26:59.179Z,76.70
2019-04-06T05:27:59.169Z,42.90
2019-04-06T05:28:59.145Z,39.10
2019-04-06T05:29:59.132Z,29.20
2019-04-06T05:30:59.117Z,27.60
2019-04-06T05:31:59.217Z,126.30
2019-04-06T05:32:59.086Z,30.50
2019-04-06T05:33:59.069Z,38.20
2019-04-06T05:34:59.055Z,119.30
2019-04-06T05:35:59.037Z,153.80
2019-04-06T05:36:59.024Z,154.30
2019-04-06T05:37:59.005Z,118.60
2019-04-06T05:38:58.993Z,53.00
2019-04-06T05:39:59.003Z,35.90
2019-04-06T05:40:58.959Z,38.00
2019-04-06T05:41:58.942Z,186.40
2019-04-06T05:42:58.926Z,211.00
2019-04-06T05:43:58.910Z,336.10
2019-04-06T05:44:58.892Z,141.70
2019-04-06T05:45:58.879Z,69.40
2019-04-06T05:46:58.866Z,40.00
2019-04-06T05:47:59.037Z,32.50
2019-04-06T05:48:58.830Z,29.00
2019-04-06T05:49:58.816Z,50.60
2019-04-06T05:50:58.798Z,37.80
2019-04-06T05:51:58.783Z,34.10
2019-04-06T05:52:58.769Z,84.10
2019-04-06T05:53:58.874Z,127.80
2019-04-06T05:54:58.737Z,122.70
2019-04-06T05:55:58.730Z,340.40
2019-04-06T05:56:58.705Z,65.20
2019-04-06T05:58:04.200Z,72.80
2019-04-06T05:58:58.705Z,135.80
2019-04-06T05:59:58.659Z,115.30
2019-04-06T06:00:58.642Z,36.30
2019-04-06T06:01:58.628Z,76.60
2019-04-06T06:02:58.615Z,105.20
2019-04-06T06:03:58.616Z,33.00
2019-04-06T06:05:00.797Z,25.60
2019-04-06T06:05:58.564Z,29.20
2019-04-06T06:06:58.547Z,51.80
2019-04-06T06:07:58.531Z,38.40
2019-04-06T06:08:58.515Z,46.70
2019-04-06T06:09:58.564Z,42.20
2019-04-06T06:10:58.485Z,42.80
2019-04-06T06:11:58.470Z,66.10
2019-04-06T06:12:58.488Z,48.80
2019-04-06T06:13:58.443Z,40.90
2019-04-06T06:14:58.422Z,75.70
2019-04-06T06:15:58.503Z,56.30
2019-04-06T06:16:58.390Z,118.90
2019-04-06T06:17:58.376Z,54.30
2019-04-06T06:18:58.363Z,28.90
2019-04-06T06:19:58.346Z,26.40
2019-04-06T06:20:58.330Z,23.70
2019-04-06T06:21:58.316Z,27.30
2019-04-06T06:22:58.304Z,32.30
2019-04-06T06:23:58.282Z,41.20
2019-04-06T06:24:58.353Z,50.40
2019-04-06T06:25:58.251Z,82.40
2019-04-06T06:26:58.240Z,28.30
2019-04-06T06:27:58.220Z,27.10
2019-04-06T06:28:58.207Z,33.60
2019-04-06T06:29:58.199Z,31.00
2019-04-06T06:30:58.176Z,28.70
2019-04-06T06:31:58.161Z,29.80
2019-04-06T06:32:58.144Z,32.70
2019-04-06T06:33:58.131Z,30.50
2019-04-06T06:34:58.116Z,24.50
2019-04-06T06:35:58.101Z,25.80
2019-04-06T06:36:58.084Z,21.00
2019-04-06T06:37:58.071Z,24.70
2019-04-06T06:38:58.061Z,34.30
2019-04-06T06:39:58.048Z,29.10
2019-04-06T06:40:58.025Z,28.70
2019-04-06T06:41:58.011Z,26.60
2019-04-06T06:42:57.995Z,24.80
2019-04-06T06:43:57.981Z,28.60
2019-04-06T06:44:57.967Z,25.00
2019-04-06T06:45:57.987Z,22.30
2019-04-06T06:46:57.939Z,24.60
2019-04-06T06:47:57.924Z,20.70
2019-04-06T06:48:57.908Z,24.80
2019-04-06T06:49:57.894Z,29.20
2019-04-06T06:50:57.877Z,26.00
2019-04-06T06:51:57.865Z,23.60
2019-04-06T06:52:58.001Z,20.60
2019-04-06T06:53:57.835Z,19.50
2019-04-06T06:54:57.822Z,20.50
2019-04-06T06:55:57.825Z,20.70
2019-04-06T06:56:57.797Z,20.20
2019-04-06T06:57:57.779Z,22.50
2019-04-06T06:58:57.920Z,21.80
2019-04-06T06:59:58.115Z,19.50
2019-04-06T07:00:57.735Z,20.60
2019-04-06T07:01:57.935Z,24.00
2019-04-06T07:02:57.710Z,25.80
2019-04-06T07:03:57.694Z,21.90
2019-04-06T07:04:57.681Z,23.60
2019-04-06T07:05:57.802Z,20.20
2019-04-06T07:06:57.655Z,22.00
2019-04-06T07:07:57.637Z,22.60
2019-04-06T07:08:57.626Z,21.70
2019-04-06T07:10:05.093Z,21.40
2019-04-06T07:10:57.597Z,20.40
2019-04-06T07:11:57.580Z,21.80
2019-04-06T07:12:57.570Z,20.00
2019-04-06T07:13:57.573Z,22.90
2019-04-06T07:14:57.623Z,23.60
2019-04-06T07:15:57.527Z,24.30
2019-04-06T07:16:57.680Z,22.40
2019-04-06T07:17:57.679Z,22.40
2019-04-06T07:18:57.484Z,22.10
2019-04-06T07:19:57.466Z,22.40
2019-04-06T07:20:57.458Z,22.30
2019-04-06T07:21:57.455Z,24.10
2019-04-06T07:22:57.429Z,22.60
2019-04-06T07:23:57.411Z,21.10
2019-04-06T07:24:57.397Z,22.90
2019-04-06T07:25:59.054Z,22.10
2019-04-06T07:26:57.550Z,23.00
2019-04-06T07:27:57.359Z,21.40
2019-04-06T07:28:57.344Z,23.70
2019-04-06T07:29:57.329Z,22.50
2019-04-06T07:30:57.313Z,20.80
2019-04-06T07:31:57.300Z,22.90
2019-04-06T07:32:57.296Z,23.90
2019-04-06T07:33:57.273Z,25.40
2019-04-06T07:34:57.260Z,24.00
2019-04-06T07:35:57.243Z,24.60
2019-04-06T07:36:57.232Z,23.00
2019-04-06T07:37:57.218Z,22.80
2019-04-06T07:38:57.204Z,21.50
2019-04-06T07:39:57.189Z,21.80
2019-04-06T07:40:57.178Z,22.80
2019-04-06T07:41:57.163Z,22.00
2019-04-06T07:42:57.149Z,20.60
2019-04-06T07:43:57.138Z,20.30
2019-04-06T07:44:57.119Z,18.40
2019-04-06T07:45:57.107Z,20.50
2019-04-06T07:46:57.344Z,19.50
2019-04-06T07:47:57.088Z,22.50
2019-04-06T07:49:07.765Z,20.80
2019-04-06T07:49:57.055Z,18.80
2019-04-06T07:50:57.039Z,19.30
2019-04-06T07:51:57.024Z,19.20
2019-04-06T07:52:57.071Z,20.40
2019-04-06T07:53:57.003Z,19.60
2019-04-06T07:54:56.990Z,19.00
2019-04-06T07:55:57.132Z,19.80
2019-04-06T07:56:56.966Z,22.90
2019-04-06T07:57:56.944Z,18.80
2019-04-06T07:58:56.984Z,20.00
2019-04-06T07:59:56.914Z,18.80
2019-04-06T08:00:56.913Z,19.40
2019-04-06T08:01:56.897Z,18.30
2019-04-06T08:02:56.879Z,18.00
2019-04-06T08:03:56.939Z,18.30
2019-04-06T08:04:56.850Z,18.10
2019-04-06T08:05:56.836Z,18.30
2019-04-06T08:06:56.846Z,19.70
2019-04-06T08:07:56.812Z,17.30
2019-04-06T08:08:56.802Z,17.90
2019-04-06T08:09:56.788Z,20.30
2019-04-06T08:10:56.773Z,18.00
2019-04-06T08:11:56.782Z,17.90
2019-04-06T08:12:56.747Z,18.80
2019-04-06T08:13:56.733Z,17.80
2019-04-06T08:14:57.525Z,18.80
2019-04-06T08:15:56.710Z,18.40
2019-04-06T08:16:56.695Z,18.20
2019-04-06T08:17:56.686Z,19.50
2019-04-06T08:18:56.672Z,21.00
2019-04-06T08:19:56.659Z,19.00
2019-04-06T08:20:56.646Z,19.00
2019-04-06T08:21:56.831Z,17.80
2019-04-06T08:22:56.623Z,21.60
2019-04-06T08:23:56.611Z,21.30
2019-04-06T08:24:57.072Z,19.00
2019-04-06T08:25:56.585Z,20.20
2019-04-06T08:26:56.719Z,20.50
2019-04-06T08:27:56.563Z,17.90
2019-04-06T08:29:01.511Z,18.80
2019-04-06T08:29:56.763Z,18.80
2019-04-06T08:30:56.642Z,19.80
2019-04-06T08:31:56.701Z,18.30
2019-04-06T08:32:56.496Z,19.60
2019-04-06T08:33:56.488Z,19.60
2019-04-06T08:34:56.473Z,19.70
2019-04-06T08:35:56.460Z,19.50
2019-04-06T08:36:56.447Z,17.40
2019-04-06T08:37:56.436Z,18.70
2019-04-06T08:38:56.424Z,19.10
2019-04-06T08:39:56.672Z,20.60
2019-04-06T08:40:56.451Z,18.80
2019-04-06T08:41:56.387Z,20.30
2019-04-06T08:42:56.507Z,18.90
2019-04-06T08:43:56.361Z,19.80
2019-04-06T08:44:56.351Z,18.50
2019-04-06T08:45:56.341Z,19.60
2019-04-06T08:46:56.329Z,20.40
2019-04-06T08:47:56.357Z,19.00
2019-04-06T08:48:56.302Z,20.00
2019-04-06T08:49:56.290Z,18.70
2019-04-06T08:50:56.278Z,20.10
2019-04-06T08:51:56.265Z,20.60
2019-04-06T08:52:56.493Z,23.40
2019-04-06T08:53:56.317Z,18.90
2019-04-06T08:54:56.233Z,18.40
2019-04-06T08:55:56.219Z,19.10
2019-04-06T08:56:56.209Z,19.40
2019-04-06T08:57:56.197Z,18.80
2019-04-06T08:58:56.212Z,18.10
2019-04-06T08:59:56.171Z,19.40
2019-04-06T09:00:56.161Z,19.70
2019-04-06T09:01:56.148Z,18.00
2019-04-06T09:02:56.146Z,19.80
2019-04-06T09:03:56.127Z,19.40
2019-04-06T09:04:56.116Z,18.20
2019-04-06T09:05:56.102Z,19.80
2019-04-06T09:06:56.143Z,18.40
2019-04-06T09:07:56.080Z,19.30
2019-04-06T09:08:56.070Z,17.50
2019-04-06T09:09:56.464Z,18.80
2019-04-06T09:10:56.052Z,18.90
2019-04-06T09:11:56.035Z,18.70
2019-04-06T09:12:56.027Z,19.20
2019-04-06T09:13:56.020Z,18.60
2019-04-06T09:14:56.011Z,18.30
2019-04-06T09:15:56.116Z,18.80
2019-04-06T09:16:55.982Z,20.10
2019-04-06T09:17:55.974Z,17.50
2019-04-06T09:18:56.175Z,17.60
2019-04-06T09:19:55.948Z,18.30
2019-04-06T09:20:55.938Z,16.70
2019-04-06T09:21:55.929Z,18.80
2019-04-06T09:22:56.117Z,19.20
2019-04-06T09:23:58.230Z,18.70
2019-04-06T09:24:55.896Z,17.90
2019-04-06T09:25:55.892Z,20.80
2019-04-06T09:26:55.877Z,18.20
2019-04-06T09:27:55.867Z,19.00
2019-04-06T09:28:55.894Z,22.80
2019-04-06T09:29:55.846Z,21.30
2019-04-06T09:30:55.849Z,20.20
2019-04-06T09:31:55.827Z,18.30
2019-04-06T09:32:56.005Z,21.20
2019-04-06T09:33:55.807Z,19.20
2019-04-06T09:34:55.795Z,17.80
2019-04-06T09:35:55.811Z,18.80
2019-04-06T09:36:55.773Z,18.30
2019-04-06T09:37:55.766Z,19.80
2019-04-06T09:38:55.751Z,19.60
2019-04-06T09:39:55.929Z,18.10
2019-04-06T09:40:55.747Z,19.00
2019-04-06T09:41:55.795Z,19.60
2019-04-06T09:42:55.710Z,17.60
2019-04-06T09:43:55.943Z,19.10
2019-04-06T09:44:55.915Z,18.70
2019-04-06T09:45:55.680Z,17.50
2019-04-06T09:46:55.670Z,19.80
2019-04-06T09:47:55.659Z,18.20
2019-04-06T09:48:55.649Z,19.30
2019-04-06T09:49:55.640Z,17.30
2019-04-06T09:50:55.628Z,16.90
2019-04-06T09:51:55.684Z,17.10
2019-04-06T09:52:55.603Z,17.60
2019-04-06T09:54:05.190Z,17.50
2019-04-06T09:54:55.586Z,18.10
2019-04-06T09:55:55.572Z,18.00
2019-04-06T09:56:55.565Z,17.00
2019-04-06T09:57:55.565Z,17.80
2019-04-06T09:58:55.546Z,17.60
2019-04-06T09:59:55.532Z,19.20
2019-04-06T10:00:55.761Z,17.80
2019-04-06T10:01:55.512Z,18.50
2019-04-06T10:02:55.637Z,16.40
2019-04-06T10:03:55.489Z,17.40
2019-04-06T10:04:55.480Z,16.50
2019-04-06T10:05:55.469Z,17.70
2019-04-06T10:06:55.456Z,17.80
2019-04-06T10:07:55.447Z,16.80
2019-04-06T10:08:55.435Z,16.90
2019-04-06T10:09:55.428Z,16.40
2019-04-06T10:10:55.415Z,19.40
2019-04-06T10:11:55.402Z,18.00
2019-04-06T10:12:55.557Z,17.10
2019-04-06T10:13:55.388Z,17.90
2019-04-06T10:14:55.372Z,17.40
2019-04-06T10:15:55.360Z,15.40
2019-04-06T10:16:55.351Z,18.20
2019-04-06T10:17:55.339Z,17.60
2019-04-06T10:18:55.437Z,17.30
2019-04-06T10:19:55.433Z,16.00
2019-04-06T10:20:55.312Z,16.80
2019-04-06T10:21:55.302Z,16.30
2019-04-06T10:22:55.288Z,17.80
2019-04-06T10:23:55.278Z,16.70
2019-04-06T10:24:55.269Z,16.00
2019-04-06T10:25:55.259Z,16.20
2019-04-06T10:26:55.249Z,17.40
2019-04-06T10:27:55.244Z,15.30
2019-04-06T10:28:55.472Z,15.10
2019-04-06T10:29:55.219Z,15.70
2019-04-06T10:30:55.501Z,15.00
2019-04-06T10:31:55.452Z,16.40
2019-04-06T10:32:55.426Z,16.80
2019-04-06T10:33:55.180Z,15.70
2019-04-06T10:34:55.168Z,15.30
2019-04-06T10:35:55.158Z,15.00
2019-04-06T10:36:55.149Z,16.10
2019-04-06T10:37:55.140Z,14.80
2019-04-06T10:38:55.513Z,14.40
2019-04-06T10:39:55.120Z,14.80
2019-04-06T10:40:55.111Z,14.30
2019-04-06T10:41:55.177Z,14.10
2019-04-06T10:42:55.090Z,15.90
2019-04-06T10:43:55.079Z,15.20
2019-04-06T10:44:55.070Z,14.80
2019-04-06T10:45:55.061Z,14.50
2019-04-06T10:46:55.230Z,12.30
2019-04-06T10:47:55.041Z,13.40
2019-04-06T10:48:55.031Z,13.40
2019-04-06T10:49:55.025Z,12.40
2019-04-06T10:50:55.013Z,13.60
2019-04-06T10:51:55.001Z,13.10
2019-04-06T10:52:54.994Z,14.20
2019-04-06T10:53:55.070Z,13.30
2019-04-06T10:54:54.985Z,13.80
2019-04-06T10:55:54.964Z,12.50
2019-04-06T10:56:54.957Z,13.00
2019-04-06T10:57:54.944Z,13.30
2019-04-06T10:58:54.936Z,12.70
2019-04-06T11:00:01.950Z,12.80
2019-04-06T11:00:54.916Z,12.50
2019-04-06T11:01:54.909Z,12.30
2019-04-06T11:02:54.896Z,12.50
2019-04-06T11:03:54.889Z,13.00
2019-04-06T11:04:54.877Z,13.70
2019-04-06T11:05:54.869Z,11.50
2019-04-06T11:06:54.860Z,12.30
2019-04-06T11:07:54.893Z,12.70
2019-04-06T11:08:54.838Z,12.70
2019-04-06T11:09:54.829Z,11.50
2019-04-06T11:10:54.819Z,12.00
2019-04-06T11:11:54.878Z,12.30
2019-04-06T11:12:54.801Z,12.70
2019-04-06T11:13:54.792Z,12.90
2019-04-06T11:14:54.780Z,13.20
2019-04-06T11:15:54.771Z,12.10
2019-04-06T11:16:54.763Z,14.50
2019-04-06T11:17:54.750Z,13.60
2019-04-06T11:18:54.739Z,13.60
2019-04-06T11:19:55.045Z,14.00
2019-04-06T11:20:54.720Z,12.80
2019-04-06T11:21:54.714Z,14.70
2019-04-06T11:22:54.702Z,14.20
2019-04-06T11:23:54.693Z,15.30
2019-04-06T11:24:54.681Z,14.40
2019-04-06T11:25:54.679Z,14.90
2019-04-06T11:26:54.661Z,12.10
2019-04-06T11:27:54.650Z,12.90
2019-04-06T11:28:54.645Z,15.30
2019-04-06T11:29:55.016Z,14.60
2019-04-06T11:30:54.623Z,15.40
2019-04-06T11:31:54.687Z,13.90
2019-04-06T11:32:54.604Z,12.40
2019-04-06T11:33:54.647Z,12.70
2019-04-06T11:34:54.586Z,12.30
2019-04-06T11:35:54.574Z,11.90
2019-04-06T11:36:54.631Z,11.40
2019-04-06T11:37:54.559Z,16.40
2019-04-06T11:38:54.546Z,14.10
2019-04-06T11:39:54.537Z,15.50
2019-04-06T11:40:54.526Z,13.70
2019-04-06T11:41:55.422Z,12.30
2019-04-06T11:42:54.555Z,14.70
2019-04-06T11:43:54.554Z,12.40
2019-04-06T11:44:54.489Z,11.50
2019-04-06T11:45:54.481Z,11.70
2019-04-06T11:46:54.469Z,13.30
2019-04-06T11:47:54.461Z,12.60
2019-04-06T11:48:54.453Z,13.80
2019-04-06T11:49:54.592Z,12.20
2019-04-06T11:50:54.435Z,13.50
2019-04-06T11:51:54.422Z,12.40
2019-04-06T11:52:54.415Z,14.30
2019-04-06T11:53:54.700Z,15.70
2019-04-06T11:54:54.575Z,13.90
2019-04-06T11:55:54.388Z,13.70
2019-04-06T11:56:54.400Z,14.70
2019-04-06T11:57:54.370Z,13.00
2019-04-06T11:58:54.615Z,14.30
2019-04-06T11:59:54.349Z,13.30
2019-04-06T12:00:54.344Z,17.30
2019-04-06T12:01:54.333Z,14.70
2019-04-06T12:02:54.323Z,16.30
2019-04-06T12:03:54.370Z,14.20
2019-04-06T12:04:54.306Z,14.50
2019-04-06T12:05:54.294Z,16.00
2019-04-06T12:06:54.288Z,15.90
2019-04-06T12:07:54.276Z,14.60
2019-04-06T12:08:54.273Z,14.90
2019-04-06T12:09:54.260Z,15.90
2019-04-06T12:10:54.253Z,17.00
2019-04-06T12:11:54.241Z,16.40
2019-04-06T12:12:55.814Z,15.60
2019-04-06T12:13:54.291Z,17.00
2019-04-06T12:14:54.215Z,17.30
2019-04-06T12:15:54.208Z,16.40
2019-04-06T12:16:54.352Z,15.30
2019-04-06T12:17:54.188Z,16.70
2019-04-06T12:18:54.184Z,16.60
2019-04-06T12:19:54.170Z,15.80
2019-04-06T12:20:54.162Z,15.50
2019-04-06T12:21:54.155Z,16.00
2019-04-06T12:22:54.154Z,16.10
2019-04-06T12:23:54.138Z,16.80
2019-04-06T12:24:54.127Z,16.80
2019-04-06T12:25:54.120Z,17.80
2019-04-06T12:26:54.172Z,16.50
2019-04-06T12:27:54.111Z,15.50
2019-04-06T12:28:54.145Z,16.20
2019-04-06T12:29:54.082Z,15.60
2019-04-06T12:30:54.072Z,17.40
2019-04-06T12:31:54.067Z,17.60
2019-04-06T12:32:54.057Z,19.70
2019-04-06T12:33:54.047Z,17.00
2019-04-06T12:34:54.042Z,17.00
2019-04-06T12:35:54.441Z,16.60
2019-04-06T12:36:54.023Z,16.90
2019-04-06T12:37:54.014Z,17.30
2019-04-06T12:38:54.045Z,17.90
2019-04-06T12:39:54.723Z,16.90
2019-04-06T12:40:53.990Z,17.20
2019-04-06T12:41:53.979Z,15.70
2019-04-06T12:42:53.979Z,17.40
2019-04-06T12:43:54.147Z,16.80
2019-04-06T12:44:54.096Z,18.80
2019-04-06T12:45:53.949Z,18.20
2019-04-06T12:46:54.053Z,17.50
2019-04-06T12:47:53.930Z,18.40
2019-04-06T12:48:53.921Z,19.00
2019-04-06T12:49:53.913Z,17.00
2019-04-06T12:50:54.013Z,17.20
2019-04-06T12:51:54.058Z,17.60
2019-04-06T12:52:53.889Z,17.40